Ihor Shakhov

Olheiro-Chefe - Metalist
3 Abr 2027
Sábado
Processo

Personalidade

Adaptabilidade (5) Ambição (11) Controvérsia (18) Lealdade (11) Pressão (12) Profissionalismo (1) Espírito Esportivo (12) Temperamento (5)

Perfil

Estilo de Treinamento Democrático
Licença Nacional A
Determinação 4
Gestão de Pessoas 7
Motivação 8
Disciplina 3
Satisfação no Trabalho
50%
Fadiga
0%
Função Olheiro-Chefe
Salário 31.2K p/s
Contrato 14.03.2030

Desempenho

Comportamento Normal
Eficácia do Treinamento
18%
Desenvolvimento do Jogador
40%
Prevenção de Lesões
35%
Implementação Tática
20%

Eventos Recentes

Avaliou um jogador agora
Participou de uma reunião de recrutamento agora
Avaliou um jogador agora
Participou de uma reunião de recrutamento 7d atrás
Avaliou um jogador 7d atrás
Avaliou um jogador 7d atrás
Avaliou um jogador 7d atrás
Avaliou um jogador 14d atrás

Monitorando agora

144
Jogador Clube Status Habilidade Confiança Observado Última observação Último voto
Danylo Honcharuk Probiy Ativo 91 / 98 40% 3 02.04.2027 -
Kwame Opoku Asante Kotoko Ativo 94 / 112 40% 2 02.04.2027 -
Cedric Gondo Reggiana Ativo 111 / 119 40% 1 02.04.2027 -
Danyil Alefirenko Chornomorets Ativo 118 / 97 40% 8 01.04.2027 -
Sam Nombe Milton Keynes Dons Ativo 102 / 118 40% 3 01.04.2027 -
Samuel Amoah Liberty Professionals Ativo 84 / 94 40% 1 01.04.2027 -
Rivaldo Ngcobo Free State Stars Ativo 109 / 116 40% 3 30.03.2027 -
Matty Stevens AFC Wimbledon Ativo 108 / 88 40% 3 30.03.2027 -
Aaron Drinan Swindon Town Ativo 116 / 100 40% 2 29.03.2027 -
Vladimir Nikolov Slavia Sofia Ativo 113 / 105 40% 3 29.03.2027 -
Rodrigo Trejo Vorskla Ativo 91 / 96 40% 2 29.03.2027 -
Evidence Mokoena Platinum Stars Ativo 94 / 85 40% 3 27.03.2027 -
Hakeeb Adelakun Doncaster Rovers Ativo 93 / 90 40% 1 27.03.2027 -
Calum Kavanagh Oldham Athletic Ativo 100 / 87 40% 1 27.03.2027 -
Kagiso Malinga Bidvest Wits Ativo 100 / 92 40% 4 26.03.2027 -
Themba Manyama Ajax Cape Town Ativo 116 / 113 40% 2 26.03.2027 -
Mykola Haiduchyk Polissia Ativo 118 / 100 40% 3 24.03.2027 -
Hlompho Modiba Black Aces Ativo 104 / 83 40% 1 20.03.2027 -
Jack Marriott Reading Ativo 106 / 86 40% 1 20.03.2027 -
Solly Khunyedi Bloemfontein Celtic Ativo 91 / 110 40% 2 19.03.2027 -
Harry Cornick AFC Wimbledon Ativo 105 / 105 40% 1 19.03.2027 -
Dmytro Shcherbak Montana Ativo 86 / 90 40% 5 17.03.2027 -
Emanuele Scipioni Monopoli Ativo 98 / 115 40% 1 15.03.2027 -
Tedi Cara LNZ Ativo 120 / 113 40% 1 15.03.2027 -
Seidu Basit Ashanti Gold Ativo 84 / 95 40% 3 14.03.2027 -
Stephen Amankona Aduana Stars Ativo 109 / 92 40% 2 14.03.2027 -
Papa Ndiaga Yade Oleksandriya Ativo 104 / 112 40% 4 13.03.2027 -
Osman Partey BA All Stars Ativo 98 / 110 40% 3 13.03.2027 -
Ihor Krasnopir Polissia Ativo 125 / 127 40% 4 12.03.2027 -
Andrii Riznyk Ahrobiznes Ativo 95 / 94 40% 1 12.03.2027 -
Tommaso Biasci Avellino Ativo 132 / 132 40% 2 10.03.2027 -
Jack Vale Alcione Milano Ativo 92 / 81 40% 1 10.03.2027 -
Carlos Rojas Epicentr Ativo 94 / 96 40% 1 09.03.2027 -
José Bica Leixões Ativo 98 / 115 40% 1 09.03.2027 -
Federico Ricci Sorrento Ativo 95 / 88 40% 1 08.03.2027 -
Peter Itodo Metalist Ativo 106 / 117 40% 1 08.03.2027 -
Luke Baartman Chippa United Ativo 100 / 114 40% 1 07.03.2027 -
Darío Poveda Nea Salamis Ativo 96 / 106 40% 1 06.03.2027 -
Andrii Khoma Chornomorets Ativo 95 / 91 40% 1 05.03.2027 -
Marcus Browne AFC Wimbledon Ativo 102 / 113 40% 4 04.03.2027 -
Juan Cejas Ethnikos Achnas Ativo 101 / 97 40% 1 04.03.2027 -
Vladyslav Vakula Obolon Ativo 101 / 96 40% 2 02.03.2027 -
Kwadwo Obeng Junior Heart of Lions Ativo 89 / 93 40% 1 02.03.2027 -
Ivan Bendera Epicentr Ativo 97 / 90 40% 3 01.03.2027 -
Jorge Padilla Cherno More Ativo 110 / 95 40% 1 01.03.2027 -
Damir Céter Hamrun Spartans Ativo 107 / 93 40% 1 01.03.2027 -
Milan Vidakov Radnicki 1923 Ativo 99 / 102 40% 1 25.02.2027 -
Freddie Draper Lincoln City Ativo 109 / 126 40% 1 25.02.2027 -
Franklin Sasere Birkirkara Ativo 108 / 107 40% 1 23.02.2027 -
Oleh Kozhushko Bukovyna Ativo 96 / 108 40% 1 18.02.2027 -
Yurii Klymchuk Kolos Ativo 111 / 108 40% 3 16.02.2027 -
Mark Assinor LNZ Ativo 113 / 108 40% 1 16.02.2027 -
Bohdan Boichuk Bukovyna Ativo 101 / 92 40% 1 14.02.2027 -
Ardit Tahiri Kolos Ativo 103 / 104 40% 1 12.02.2027 -
Denys Rezepov Nyva Rejeitado 98 / 102 62% 4 10.02.2027 Rejeitar
Ekain Orobengoa Real Sociedad Ativo 85 / 104 40% 1 09.02.2027 -
Andrii Kusyi Feniks Perdido 75 / 82 62% 1 08.02.2027 Aprovar
Kane Drummond Oldham Athletic Ativo 98 / 99 40% 1 24.01.2027 -
Yevhen Pidlepenets Bukovyna Ativo 99 / 101 40% 7 23.01.2027 -
Arinaldo Rrapaj Kolos Ativo 111 / 102 40% 2 20.01.2027 -
Mandla Vilakazi Black Aces Ativo 85 / 89 40% 2 20.01.2027 -
Lebogang Zwane Black Aces Ativo 95 / 111 40% 3 19.01.2027 -
Vitalii Hrusha Bukovyna Ativo 90 / 98 40% 1 19.01.2027 -
Brian Figueroa Morelia Ativo 125 / 117 40% 1 17.01.2027 -
Jewison Bennette LNZ Ativo 111 / 102 40% 4 15.01.2027 -
Nicolás Arévalo Metalist Ativo 113 / 121 40% 2 15.01.2027 -
Ermir Rashica Metalist Ativo 110 / 107 40% 1 13.01.2027 -
Oleksandr Drambaiev LNZ Ativo 114 / 100 40% 2 08.01.2027 -
Kyreece Lisbie Colchester United Ativo 123 / 95 40% 2 08.01.2027 -
Gift Mothiba Black Aces Ativo 88 / 90 40% 2 07.01.2027 -
Klayver Rukh Ativo 99 / 102 40% 1 07.01.2027 -
Kwadwo Kudus Hasaacas Ativo 121 / 116 40% 2 06.01.2027 -
Bar Lin Kryvbas Ativo 112 / 121 40% 2 05.01.2027 -
Xeber Alkain Karpaty Rejeitado 117 / 126 40% 3 05.01.2027 Observar
Velemseni Ndwandwe Golden Arrows Rejeitado 96 / 102 40% 2 04.01.2027 Mais informações
Roman Vantukh Rukh Ativo 120 / 118 40% 3 03.01.2027 -
Vitalii Boiko Veres Ativo 101 / 91 40% 3 03.01.2027 -
Carlos Paraco Metalist Ativo 100 / 107 40% 2 01.01.2027 -
Oleksandr Yatsyk Metalist Ativo 125 / 117 40% 3 31.12.2026 -
Felix Kudus Hasaacas Ativo 112 / 104 40% 2 28.12.2026 -
Dmytro Myshniov Oleksandriya Ativo 117 / 112 40% 2 27.12.2026 -
Andrii Boriachuk Nyva Ativo 108 / 107 40% 2 26.12.2026 -
Alejandro Andrade Morelia Ativo 114 / 114 40% 1 25.12.2026 -
Bohdan Mykhailichenko Polissia Ativo 119 / 121 40% 1 22.12.2026 -
Artem Kozak ND Gorica Ativo 111 / 113 40% 1 20.12.2026 -
Vasyl Runich Rukh Ativo 90 / 100 40% 4 19.12.2026 -
Corey O'Keeffe Barnsley Ativo 120 / 107 40% 2 17.12.2026 -
Siyanda Msani University of Pretoria Ativo 101 / 98 40% 1 17.12.2026 -
Denys Antiukh Metalist Ativo 119 / 114 40% 2 16.12.2026 -
Bradley Mothiba SuperSport United Ativo 117 / 90 40% 2 15.12.2026 -
Maksym Zaderaka Omonoia Ativo 119 / 110 40% 1 13.12.2026 -
Vitalii Dakhnovskyi Bukovyna Ativo 116 / 113 40% 3 12.12.2026 -
Oleksandr Andriievskyi Polissia Ativo 116 / 122 40% 1 12.12.2026 -
Tiago Pucciarelli FK Senica Ativo 93 / 105 40% 1 11.12.2026 -
Sello Jaftha Bidvest Wits Ativo 81 / 90 40% 1 11.12.2026 -
Andrii Kukharuk Feniks Ativo 84 / 83 40% 1 09.12.2026 -
Dmytro Shastal Livyi Bereh Ativo 109 / 106 40% 2 06.12.2026 -
Jakov Bašić Zorya Ativo 122 / 117 40% 1 06.12.2026 -
Yehor Tverdokhlib LNZ Ativo 107 / 126 40% 2 03.12.2026 -
Michal Faško MSK Zilina Ativo 131 / 129 40% 1 03.12.2026 -
Mykyta Kravchenko Polissia Ativo 113 / 110 40% 2 01.12.2026 -
Artem Slesar Zorya Ativo 113 / 116 40% 4 28.11.2026 -
Jan Jurčec Kryvbas Ativo 118 / 118 40% 1 27.11.2026 -
Yaroslav Karabin Karpaty Ativo 108 / 108 40% 2 26.11.2026 -
Ali Soliman Masr El Makasa Ativo 135 / 122 40% 1 26.11.2026 -
Jordan Roberts Stevenage Ativo 123 / 119 40% 1 24.11.2026 -
Nduduzo Sibiya Golden Arrows Ativo 116 / 92 40% 2 23.11.2026 -
Lebohang Maboe Kaizer Chiefs Ativo 126 / 116 40% 2 22.11.2026 -
Iuri Medeiros Ujpest Ativo 126 / 116 40% 1 22.11.2026 -
Sinoxolo Kwayiba Chippa United Ativo 98 / 94 40% 1 20.11.2026 -
Jay Matete Milton Keynes Dons Ativo 123 / 109 40% 1 20.11.2026 -
Dmytro Kliots Chornomorets Ativo 101 / 87 40% 1 18.11.2026 -
Borys Krushynskyi Polissia Ativo 117 / 106 40% 1 17.11.2026 -
Maksym Luniov Chornomorets Ativo 110 / 108 40% 1 17.11.2026 -
Kermit Manyama Ajax Cape Town Ativo 118 / 99 40% 1 15.11.2026 -
Thulani Mabaso Platinum Stars Ativo 105 / 118 40% 1 13.11.2026 -
Happy Mashiane Bidvest Wits Ativo 88 / 114 40% 1 13.11.2026 -
Valeriy Luchkevych Epicentr Ativo 99 / 112 40% 2 06.11.2026 -
Agustín Ramírez Inter Ativo 115 / 101 40% 1 05.11.2026 -
David Barbona Defensa y Justicia Ativo 108 / 106 40% 1 05.11.2026 -
Vladlen Yurchenko Zorya Ativo 107 / 119 40% 1 03.11.2026 -
Akinkunmi Amoo Ismaily Ativo 122 / 120 40% 3 30.10.2026 -
Petro Stasiuk Bukovyna Ativo 94 / 109 40% 1 28.10.2026 -
Manprit Sarkaria Austria Wien Ativo 119 / 118 40% 1 27.10.2026 -
Nemanja Anđušić Zorya Ativo 97 / 92 40% 1 26.10.2026 -
Moustafa Zeidan El Masry Ativo 131 / 130 40% 1 25.10.2026 -
Samuel Adegbenro Dynamo Kyiv Ativo 114 / 112 40% 1 23.10.2026 -
Serhiy Buletsa Oleksandriya Ativo 106 / 105 40% 1 21.10.2026 -
Jakob Dunsby Sandefjord Ativo 129 / 96 40% 1 19.10.2026 -
Alfredo Garcia La Equidad Ativo 145 / 142 40% 2 17.10.2026 -
Mauro Rodrigues Botev Plovdiv Ativo 119 / 118 40% 1 17.10.2026 -
Mpho Mathebula Bloemfontein Celtic Ativo 109 / 86 40% 1 16.10.2026 -
Fernando Henrique Oleksandriya Ativo 114 / 113 40% 1 14.10.2026 -
Andres Lioi Chaco For Ever Ativo 105 / 112 40% 1 12.10.2026 -
Pavlo Polehenko Obolon Ativo 101 / 110 40% 1 08.10.2026 -
Erick Ngcobo Black Aces Ativo 98 / 111 40% 1 06.10.2026 -
Mykola Myroniuk Epicentr Ativo 87 / 91 40% 2 05.10.2026 -
Oleksandr Bieliaiev Kudrivka Ativo 95 / 93 40% 1 31.08.2026 -
Cody David LNZ Ativo 108 / 96 40% 1 11.08.2026 -
Ariath Piol Real Salt Lake Ativo 105 / 101 40% 1 10.08.2026 -
Lucas González Nacional Ativo 122 / 107 40% 1 10.08.2026 -
Stephen Humphrys Bradford City Ativo 119 / 90 40% 1 04.08.2026 -
Artem Husol Kolos Ativo 103 / 100 40% 1 04.08.2026 -
Anton Salabai Kolos Ativo 108 / 105 40% 1 02.08.2026 -